sensor_id;sensor_type;location;lat;lon;timestamp;temperature;humidity
4727;DHT22;2377;51.734;8.950;2023-02-10T00:01:15;2.00;69.10
4727;DHT22;2377;51.734;8.950;2023-02-10T00:03:44;2.00;63.40
4727;DHT22;2377;51.734;8.950;2023-02-10T00:06:12;2.00;82.60
4727;DHT22;2377;51.734;8.950;2023-02-10T00:08:42;2.10;56.90
4727;DHT22;2377;51.734;8.950;2023-02-10T00:11:12;2.10;62.80
4727;DHT22;2377;51.734;8.950;2023-02-10T00:13:41;2.10;65.80
4727;DHT22;2377;51.734;8.950;2023-02-10T00:16:11;2.10;61.50
4727;DHT22;2377;51.734;8.950;2023-02-10T00:18:40;2.10;74.60
4727;DHT22;2377;51.734;8.950;2023-02-10T00:21:10;2.00;62.50
4727;DHT22;2377;51.734;8.950;2023-02-10T00:23:40;2.10;67.20
4727;DHT22;2377;51.734;8.950;2023-02-10T00:26:10;2.10;65.00
4727;DHT22;2377;51.734;8.950;2023-02-10T00:28:38;2.10;73.20
4727;DHT22;2377;51.734;8.950;2023-02-10T00:31:06;2.10;81.50
4727;DHT22;2377;51.734;8.950;2023-02-10T00:33:34;2.10;70.20
4727;DHT22;2377;51.734;8.950;2023-02-10T00:36:03;2.10;91.70
4727;DHT22;2377;51.734;8.950;2023-02-10T00:38:31;2.10;90.70
4727;DHT22;2377;51.734;8.950;2023-02-10T00:41:03;2.10;84.20
4727;DHT22;2377;51.734;8.950;2023-02-10T00:43:31;2.10;90.00
4727;DHT22;2377;51.734;8.950;2023-02-10T00:45:58;2.20;99.80
4727;DHT22;2377;51.734;8.950;2023-02-10T00:48:25;2.20;99.90
4727;DHT22;2377;51.734;8.950;2023-02-10T00:50:52;2.20;96.50
4727;DHT22;2377;51.734;8.950;2023-02-10T00:53:19;2.20;99.90
4727;DHT22;2377;51.734;8.950;2023-02-10T00:55:46;2.30;99.90
4727;DHT22;2377;51.734;8.950;2023-02-10T00:58:15;2.30;99.90
4727;DHT22;2377;51.734;8.950;2023-02-10T01:00:42;2.30;99.30
4727;DHT22;2377;51.734;8.950;2023-02-10T01:03:09;2.30;99.90
4727;DHT22;2377;51.734;8.950;2023-02-10T01:05:37;2.30;99.90
4727;DHT22;2377;51.734;8.950;2023-02-10T01:08:04;2.30;99.90
4727;DHT22;2377;51.734;8.950;2023-02-10T01:10:31;2.30;99.90
4727;DHT22;2377;51.734;8.950;2023-02-10T01:13:00;2.30;99.90
4727;DHT22;2377;51.734;8.950;2023-02-10T01:15:29;2.30;99.90
4727;DHT22;2377;51.734;8.950;2023-02-10T01:17:56;2.30;99.90
4727;DHT22;2377;51.734;8.950;2023-02-10T01:20:23;2.30;99.90
4727;DHT22;2377;51.734;8.950;2023-02-10T01:22:51;2.30;99.90
4727;DHT22;2377;51.734;8.950;2023-02-10T01:25:18;2.40;99.90
4727;DHT22;2377;51.734;8.950;2023-02-10T01:27:45;2.30;99.90
4727;DHT22;2377;51.734;8.950;2023-02-10T01:30:13;2.30;99.90
4727;DHT22;2377;51.734;8.950;2023-02-10T01:32:42;2.30;99.90
4727;DHT22;2377;51.734;8.950;2023-02-10T01:35:09;2.30;97.50
4727;DHT22;2377;51.734;8.950;2023-02-10T01:37:36;2.40;88.00
4727;DHT22;2377;51.734;8.950;2023-02-10T01:40:04;2.40;99.90
4727;DHT22;2377;51.734;8.950;2023-02-10T01:42:32;2.40;99.90
4727;DHT22;2377;51.734;8.950;2023-02-10T01:45:18;2.40;99.90
4727;DHT22;2377;51.734;8.950;2023-02-10T01:47:50;2.40;99.10
4727;DHT22;2377;51.734;8.950;2023-02-10T01:50:21;2.50;99.90
4727;DHT22;2377;51.734;8.950;2023-02-10T01:52:56;2.40;99.90
4727;DHT22;2377;51.734;8.950;2023-02-10T01:55:30;2.40;99.90
4727;DHT22;2377;51.734;8.950;2023-02-10T01:58:01;2.50;99.90
4727;DHT22;2377;51.734;8.950;2023-02-10T02:00:31;2.40;99.90
4727;DHT22;2377;51.734;8.950;2023-02-10T02:03:01;2.40;99.90
4727;DHT22;2377;51.734;8.950;2023-02-10T02:05:31;2.40;99.90
4727;DHT22;2377;51.734;8.950;2023-02-10T02:08:03;2.40;99.90
4727;DHT22;2377;51.734;8.950;2023-02-10T02:10:50;2.40;99.90
4727;DHT22;2377;51.734;8.950;2023-02-10T02:13:32;2.40;99.90
4727;DHT22;2377;51.734;8.950;2023-02-10T02:16:11;2.40;99.90
4727;DHT22;2377;51.734;8.950;2023-02-10T02:18:57;2.40;99.90
4727;DHT22;2377;51.734;8.950;2023-02-10T02:24:56;2.40;99.90
4727;DHT22;2377;51.734;8.950;2023-02-10T02:27:47;2.50;99.90
4727;DHT22;2377;51.734;8.950;2023-02-10T02:30:45;2.50;99.90
4727;DHT22;2377;51.734;8.950;2023-02-10T02:33:43;2.50;99.90
4727;DHT22;2377;51.734;8.950;2023-02-10T02:36:19;2.50;99.90
4727;DHT22;2377;51.734;8.950;2023-02-10T02:38:52;2.50;99.90
4727;DHT22;2377;51.734;8.950;2023-02-10T02:41:26;2.50;99.90
4727;DHT22;2377;51.734;8.950;2023-02-10T02:43:55;2.50;99.90
4727;DHT22;2377;51.734;8.950;2023-02-10T02:46:31;2.50;99.90
4727;DHT22;2377;51.734;8.950;2023-02-10T02:49:11;2.50;99.90
4727;DHT22;2377;51.734;8.950;2023-02-10T02:51:48;2.50;99.90
4727;DHT22;2377;51.734;8.950;2023-02-10T02:54:23;2.50;99.90
4727;DHT22;2377;51.734;8.950;2023-02-10T02:56:57;2.50;99.90
4727;DHT22;2377;51.734;8.950;2023-02-10T02:59:36;2.50;99.90
4727;DHT22;2377;51.734;8.950;2023-02-10T03:02:12;2.50;99.90
4727;DHT22;2377;51.734;8.950;2023-02-10T03:04:43;2.60;99.90
4727;DHT22;2377;51.734;8.950;2023-02-10T03:07:10;2.60;99.90
4727;DHT22;2377;51.734;8.950;2023-02-10T03:09:37;2.50;99.90
4727;DHT22;2377;51.734;8.950;2023-02-10T03:12:05;2.60;99.90
4727;DHT22;2377;51.734;8.950;2023-02-10T03:14:32;2.60;99.90
4727;DHT22;2377;51.734;8.950;2023-02-10T03:16:59;2.60;99.90
4727;DHT22;2377;51.734;8.950;2023-02-10T03:19:27;2.60;99.90
4727;DHT22;2377;51.734;8.950;2023-02-10T03:21:55;2.60;99.90
4727;DHT22;2377;51.734;8.950;2023-02-10T03:24:22;2.60;99.90
4727;DHT22;2377;51.734;8.950;2023-02-10T03:26:49;2.60;99.90
4727;DHT22;2377;51.734;8.950;2023-02-10T03:29:16;2.60;99.90
4727;DHT22;2377;51.734;8.950;2023-02-10T03:31:44;2.60;99.90
4727;DHT22;2377;51.734;8.950;2023-02-10T03:34:11;2.60;99.90
4727;DHT22;2377;51.734;8.950;2023-02-10T03:36:38;2.60;99.90
4727;DHT22;2377;51.734;8.950;2023-02-10T03:39:06;2.60;99.90
4727;DHT22;2377;51.734;8.950;2023-02-10T03:41:33;2.60;99.90
4727;DHT22;2377;51.734;8.950;2023-02-10T03:44:00;2.60;99.90
4727;DHT22;2377;51.734;8.950;2023-02-10T03:46:28;2.60;99.90
4727;DHT22;2377;51.734;8.950;2023-02-10T03:48:55;2.60;99.90
4727;DHT22;2377;51.734;8.950;2023-02-10T03:51:22;2.60;99.90
4727;DHT22;2377;51.734;8.950;2023-02-10T03:53:49;2.60;99.90
4727;DHT22;2377;51.734;8.950;2023-02-10T03:56:17;2.60;99.90
4727;DHT22;2377;51.734;8.950;2023-02-10T03:58:44;2.60;99.90
4727;DHT22;2377;51.734;8.950;2023-02-10T04:01:13;2.60;99.90
4727;DHT22;2377;51.734;8.950;2023-02-10T04:03:41;2.60;99.90
4727;DHT22;2377;51.734;8.950;2023-02-10T04:06:09;2.60;99.90
4727;DHT22;2377;51.734;8.950;2023-02-10T04:08:37;2.60;99.90
4727;DHT22;2377;51.734;8.950;2023-02-10T04:11:04;2.60;99.90
4727;DHT22;2377;51.734;8.950;2023-02-10T04:13:35;2.60;99.90
4727;DHT22;2377;51.734;8.950;2023-02-10T04:16:04;2.60;99.90
4727;DHT22;2377;51.734;8.950;2023-02-10T04:18:32;2.60;99.90
4727;DHT22;2377;51.734;8.950;2023-02-10T04:21:00;2.60;99.90
4727;DHT22;2377;51.734;8.950;2023-02-10T04:23:28;2.60;99.90
4727;DHT22;2377;51.734;8.950;2023-02-10T04:25:56;2.60;99.90
4727;DHT22;2377;51.734;8.950;2023-02-10T04:28:24;2.60;99.90
4727;DHT22;2377;51.734;8.950;2023-02-10T04:30:53;2.50;99.90
4727;DHT22;2377;51.734;8.950;2023-02-10T04:33:21;2.60;99.90
4727;DHT22;2377;51.734;8.950;2023-02-10T04:35:50;2.60;99.90
4727;DHT22;2377;51.734;8.950;2023-02-10T04:38:18;2.50;99.90
4727;DHT22;2377;51.734;8.950;2023-02-10T04:40:45;2.50;99.90
4727;DHT22;2377;51.734;8.950;2023-02-10T04:43:13;2.50;99.90
4727;DHT22;2377;51.734;8.950;2023-02-10T04:45:41;2.50;99.90
4727;DHT22;2377;51.734;8.950;2023-02-10T04:48:09;2.50;99.90
4727;DHT22;2377;51.734;8.950;2023-02-10T04:50:37;2.60;99.90
4727;DHT22;2377;51.734;8.950;2023-02-10T04:53:04;2.50;99.90
4727;DHT22;2377;51.734;8.950;2023-02-10T04:55:32;2.50;99.90
4727;DHT22;2377;51.734;8.950;2023-02-10T04:58:00;2.60;99.90
4727;DHT22;2377;51.734;8.950;2023-02-10T05:00:27;2.50;99.90
4727;DHT22;2377;51.734;8.950;2023-02-10T05:02:54;2.50;99.90
4727;DHT22;2377;51.734;8.950;2023-02-10T05:05:23;2.50;99.90
4727;DHT22;2377;51.734;8.950;2023-02-10T05:07:50;2.60;99.90
4727;DHT22;2377;51.734;8.950;2023-02-10T05:10:18;2.60;99.90
4727;DHT22;2377;51.734;8.950;2023-02-10T05:12:45;2.50;99.90
4727;DHT22;2377;51.734;8.950;2023-02-10T05:15:12;2.50;99.90
4727;DHT22;2377;51.734;8.950;2023-02-10T05:17:40;2.50;99.90
4727;DHT22;2377;51.734;8.950;2023-02-10T05:20:08;2.50;99.90
4727;DHT22;2377;51.734;8.950;2023-02-10T05:22:37;2.50;99.90
4727;DHT22;2377;51.734;8.950;2023-02-10T05:25:05;2.60;99.90
4727;DHT22;2377;51.734;8.950;2023-02-10T05:27:33;2.50;99.90
4727;DHT22;2377;51.734;8.950;2023-02-10T05:30:00;2.60;99.90
4727;DHT22;2377;51.734;8.950;2023-02-10T05:32:27;2.60;99.90
4727;DHT22;2377;51.734;8.950;2023-02-10T05:34:54;2.60;99.90
4727;DHT22;2377;51.734;8.950;2023-02-10T05:37:21;2.60;99.90
4727;DHT22;2377;51.734;8.950;2023-02-10T05:39:50;2.60;99.90
4727;DHT22;2377;51.734;8.950;2023-02-10T05:42:17;2.60;99.90
4727;DHT22;2377;51.734;8.950;2023-02-10T05:44:45;2.60;99.90
4727;DHT22;2377;51.734;8.950;2023-02-10T05:47:13;2.60;99.90
4727;DHT22;2377;51.734;8.950;2023-02-10T05:49:40;2.60;99.90
4727;DHT22;2377;51.734;8.950;2023-02-10T05:52:10;2.60;99.90
4727;DHT22;2377;51.734;8.950;2023-02-10T05:54:37;2.60;99.90
4727;DHT22;2377;51.734;8.950;2023-02-10T05:57:07;2.60;99.90
4727;DHT22;2377;51.734;8.950;2023-02-10T05:59:34;2.60;99.90
4727;DHT22;2377;51.734;8.950;2023-02-10T06:02:01;2.70;99.90
4727;DHT22;2377;51.734;8.950;2023-02-10T06:04:28;2.80;99.90
4727;DHT22;2377;51.734;8.950;2023-02-10T06:06:55;2.80;99.90
4727;DHT22;2377;51.734;8.950;2023-02-10T06:09:22;2.80;99.90
4727;DHT22;2377;51.734;8.950;2023-02-10T06:11:49;2.80;99.90
4727;DHT22;2377;51.734;8.950;2023-02-10T06:14:27;2.80;99.90
4727;DHT22;2377;51.734;8.950;2023-02-10T06:17:00;2.70;99.90
4727;DHT22;2377;51.734;8.950;2023-02-10T06:19:34;2.70;99.90
4727;DHT22;2377;51.734;8.950;2023-02-10T06:22:02;2.70;99.90
4727;DHT22;2377;51.734;8.950;2023-02-10T06:24:30;2.70;99.90
4727;DHT22;2377;51.734;8.950;2023-02-10T06:26:57;2.70;99.90
4727;DHT22;2377;51.734;8.950;2023-02-10T06:29:25;2.70;99.90
4727;DHT22;2377;51.734;8.950;2023-02-10T06:31:52;2.60;99.90
4727;DHT22;2377;51.734;8.950;2023-02-10T06:34:20;2.60;99.90
4727;DHT22;2377;51.734;8.950;2023-02-10T06:36:47;2.70;99.90
4727;DHT22;2377;51.734;8.950;2023-02-10T06:39:14;2.70;99.90
4727;DHT22;2377;51.734;8.950;2023-02-10T06:41:41;2.70;99.90
4727;DHT22;2377;51.734;8.950;2023-02-10T06:44:08;2.70;99.90
4727;DHT22;2377;51.734;8.950;2023-02-10T06:46:36;2.80;99.90
4727;DHT22;2377;51.734;8.950;2023-02-10T06:49:03;2.80;99.90
4727;DHT22;2377;51.734;8.950;2023-02-10T06:51:30;2.80;99.90
4727;DHT22;2377;51.734;8.950;2023-02-10T06:53:57;2.80;99.90
4727;DHT22;2377;51.734;8.950;2023-02-10T06:56:24;2.80;99.90
4727;DHT22;2377;51.734;8.950;2023-02-10T06:58:51;2.80;99.90
4727;DHT22;2377;51.734;8.950;2023-02-10T07:01:18;2.80;99.90
4727;DHT22;2377;51.734;8.950;2023-02-10T07:03:47;2.80;99.90
4727;DHT22;2377;51.734;8.950;2023-02-10T07:06:14;2.80;99.90
4727;DHT22;2377;51.734;8.950;2023-02-10T07:08:43;2.70;99.90
4727;DHT22;2377;51.734;8.950;2023-02-10T07:11:11;2.80;99.90
4727;DHT22;2377;51.734;8.950;2023-02-10T07:13:38;2.80;99.90
4727;DHT22;2377;51.734;8.950;2023-02-10T07:16:05;2.80;99.90
4727;DHT22;2377;51.734;8.950;2023-02-10T07:18:33;2.80;99.90
4727;DHT22;2377;51.734;8.950;2023-02-10T07:21:01;2.80;99.90
4727;DHT22;2377;51.734;8.950;2023-02-10T07:23:28;2.80;99.90
4727;DHT22;2377;51.734;8.950;2023-02-10T07:25:55;2.80;99.90
4727;DHT22;2377;51.734;8.950;2023-02-10T07:30:53;2.80;99.90
4727;DHT22;2377;51.734;8.950;2023-02-10T07:33:20;2.80;99.90
4727;DHT22;2377;51.734;8.950;2023-02-10T07:35:47;2.80;99.90
4727;DHT22;2377;51.734;8.950;2023-02-10T07:38:14;2.80;99.90
4727;DHT22;2377;51.734;8.950;2023-02-10T07:40:41;2.80;99.90
4727;DHT22;2377;51.734;8.950;2023-02-10T07:43:08;2.80;99.90
4727;DHT22;2377;51.734;8.950;2023-02-10T07:45:35;2.80;99.90
4727;DHT22;2377;51.734;8.950;2023-02-10T07:48:03;2.80;99.90
4727;DHT22;2377;51.734;8.950;2023-02-10T07:50:30;2.80;99.90
4727;DHT22;2377;51.734;8.950;2023-02-10T07:52:57;2.80;99.90
4727;DHT22;2377;51.734;8.950;2023-02-10T07:55:24;2.80;99.90
4727;DHT22;2377;51.734;8.950;2023-02-10T07:57:51;2.80;99.90
4727;DHT22;2377;51.734;8.950;2023-02-10T08:00:19;2.80;99.90
4727;DHT22;2377;51.734;8.950;2023-02-10T08:02:46;2.80;99.90
4727;DHT22;2377;51.734;8.950;2023-02-10T08:05:14;2.80;99.90
4727;DHT22;2377;51.734;8.950;2023-02-10T08:07:41;2.90;99.90
4727;DHT22;2377;51.734;8.950;2023-02-10T08:10:08;2.80;99.90
4727;DHT22;2377;51.734;8.950;2023-02-10T08:12:35;2.90;99.90
4727;DHT22;2377;51.734;8.950;2023-02-10T08:15:02;2.80;99.90
4727;DHT22;2377;51.734;8.950;2023-02-10T08:17:30;2.80;99.90
4727;DHT22;2377;51.734;8.950;2023-02-10T08:19:57;2.80;99.90
4727;DHT22;2377;51.734;8.950;2023-02-10T08:22:25;2.80;99.90
4727;DHT22;2377;51.734;8.950;2023-02-10T08:24:52;2.80;99.90
4727;DHT22;2377;51.734;8.950;2023-02-10T08:27:19;2.80;99.90
4727;DHT22;2377;51.734;8.950;2023-02-10T08:29:46;2.80;99.90
4727;DHT22;2377;51.734;8.950;2023-02-10T08:32:13;2.80;99.90
4727;DHT22;2377;51.734;8.950;2023-02-10T08:34:44;2.90;99.90
4727;DHT22;2377;51.734;8.950;2023-02-10T08:37:11;2.90;99.90
4727;DHT22;2377;51.734;8.950;2023-02-10T08:39:40;2.90;99.90
4727;DHT22;2377;51.734;8.950;2023-02-10T08:42:07;2.90;99.90
4727;DHT22;2377;51.734;8.950;2023-02-10T08:44:34;2.90;99.90
4727;DHT22;2377;51.734;8.950;2023-02-10T08:47:01;3.00;99.90
4727;DHT22;2377;51.734;8.950;2023-02-10T08:49:29;3.00;99.90
4727;DHT22;2377;51.734;8.950;2023-02-10T08:51:56;2.90;99.90
4727;DHT22;2377;51.734;8.950;2023-02-10T08:54:25;2.90;99.90
4727;DHT22;2377;51.734;8.950;2023-02-10T08:56:54;2.90;99.90
4727;DHT22;2377;51.734;8.950;2023-02-10T08:59:21;3.00;99.90
4727;DHT22;2377;51.734;8.950;2023-02-10T09:01:48;3.00;99.90
4727;DHT22;2377;51.734;8.950;2023-02-10T09:04:15;3.00;99.90
4727;DHT22;2377;51.734;8.950;2023-02-10T09:06:43;3.00;99.90
4727;DHT22;2377;51.734;8.950;2023-02-10T09:09:11;3.00;99.90
4727;DHT22;2377;51.734;8.950;2023-02-10T09:11:40;3.00;99.90
4727;DHT22;2377;51.734;8.950;2023-02-10T09:14:09;3.00;99.90
4727;DHT22;2377;51.734;8.950;2023-02-10T09:16:36;3.00;99.90
4727;DHT22;2377;51.734;8.950;2023-02-10T09:19:04;3.00;99.90
4727;DHT22;2377;51.734;8.950;2023-02-10T09:21:31;3.00;99.90
4727;DHT22;2377;51.734;8.950;2023-02-10T09:23:58;3.00;99.90
4727;DHT22;2377;51.734;8.950;2023-02-10T09:26:25;3.10;99.90
4727;DHT22;2377;51.734;8.950;2023-02-10T09:28:52;3.10;99.90
4727;DHT22;2377;51.734;8.950;2023-02-10T09:31:20;3.10;99.90
4727;DHT22;2377;51.734;8.950;2023-02-10T09:33:47;3.20;99.90
4727;DHT22;2377;51.734;8.950;2023-02-10T09:36:16;3.20;99.90
4727;DHT22;2377;51.734;8.950;2023-02-10T09:38:45;3.20;99.90
4727;DHT22;2377;51.734;8.950;2023-02-10T09:41:20;3.20;99.90
4727;DHT22;2377;51.734;8.950;2023-02-10T09:44:06;3.20;99.90
4727;DHT22;2377;51.734;8.950;2023-02-10T09:46:47;3.10;99.90
4727;DHT22;2377;51.734;8.950;2023-02-10T09:49:45;3.10;99.90
4727;DHT22;2377;51.734;8.950;2023-02-10T09:52:27;3.20;99.90
4727;DHT22;2377;51.734;8.950;2023-02-10T09:55:08;3.30;99.90
4727;DHT22;2377;51.734;8.950;2023-02-10T09:57:43;3.30;99.90
4727;DHT22;2377;51.734;8.950;2023-02-10T10:00:23;3.40;99.90
4727;DHT22;2377;51.734;8.950;2023-02-10T10:02:56;3.50;99.90
4727;DHT22;2377;51.734;8.950;2023-02-10T10:05:38;3.60;99.90
4727;DHT22;2377;51.734;8.950;2023-02-10T10:08:18;3.60;84.60
4727;DHT22;2377;51.734;8.950;2023-02-10T10:10:51;3.80;88.80
4727;DHT22;2377;51.734;8.950;2023-02-10T10:13:24;3.80;69.40
4727;DHT22;2377;51.734;8.950;2023-02-10T10:16:09;3.90;70.30
4727;DHT22;2377;51.734;8.950;2023-02-10T10:18:57;4.00;54.90
4727;DHT22;2377;51.734;8.950;2023-02-10T10:21:39;4.10;42.10
4727;DHT22;2377;51.734;8.950;2023-02-10T10:24:33;4.10;46.30
4727;DHT22;2377;51.734;8.950;2023-02-10T10:27:18;4.10;30.40
4727;DHT22;2377;51.734;8.950;2023-02-10T10:29:53;4.20;37.90
4727;DHT22;2377;51.734;8.950;2023-02-10T10:32:32;4.20;27.70
4727;DHT22;2377;51.734;8.950;2023-02-10T10:35:16;4.20;21.50
4727;DHT22;2377;51.734;8.950;2023-02-10T10:37:46;4.30;19.10
4727;DHT22;2377;51.734;8.950;2023-02-10T10:40:17;4.30;16.60
4727;DHT22;2377;51.734;8.950;2023-02-10T10:42:50;4.30;9.90
4727;DHT22;2377;51.734;8.950;2023-02-10T10:45:27;4.30;5.00
4727;DHT22;2377;51.734;8.950;2023-02-10T10:48:00;4.40;1.00
4727;DHT22;2377;51.734;8.950;2023-02-10T10:50:35;4.50;1.00
4727;DHT22;2377;51.734;8.950;2023-02-10T10:53:15;4.50;1.00
4727;DHT22;2377;51.734;8.950;2023-02-10T10:55:48;4.60;1.00
4727;DHT22;2377;51.734;8.950;2023-02-10T10:58:24;4.60;1.00
4727;DHT22;2377;51.734;8.950;2023-02-10T11:00:56;4.90;1.00
4727;DHT22;2377;51.734;8.950;2023-02-10T11:03:25;5.00;1.00
4727;DHT22;2377;51.734;8.950;2023-02-10T11:06:00;5.20;1.00
4727;DHT22;2377;51.734;8.950;2023-02-10T11:12:03;5.60;1.00
4727;DHT22;2377;51.734;8.950;2023-02-10T11:14:38;5.60;1.00
4727;DHT22;2377;51.734;8.950;2023-02-10T11:17:18;5.40;1.00
4727;DHT22;2377;51.734;8.950;2023-02-10T11:19:55;5.30;1.00
4727;DHT22;2377;51.734;8.950;2023-02-10T11:22:25;5.30;1.00
4727;DHT22;2377;51.734;8.950;2023-02-10T11:24:53;5.40;1.00
4727;DHT22;2377;51.734;8.950;2023-02-10T11:27:23;5.50;1.00
4727;DHT22;2377;51.734;8.950;2023-02-10T11:29:52;5.60;1.00
4727;DHT22;2377;51.734;8.950;2023-02-10T11:32:22;5.60;1.00
4727;DHT22;2377;51.734;8.950;2023-02-10T11:34:52;5.80;1.00
4727;DHT22;2377;51.734;8.950;2023-02-10T11:37:25;5.80;1.00
4727;DHT22;2377;51.734;8.950;2023-02-10T11:39:55;5.90;1.00
4727;DHT22;2377;51.734;8.950;2023-02-10T11:42:27;6.00;1.00
4727;DHT22;2377;51.734;8.950;2023-02-10T11:44:58;5.80;1.00
4727;DHT22;2377;51.734;8.950;2023-02-10T11:47:28;5.80;1.00
4727;DHT22;2377;51.734;8.950;2023-02-10T11:49:57;5.80;1.00
4727;DHT22;2377;51.734;8.950;2023-02-10T11:52:27;5.70;1.00
4727;DHT22;2377;51.734;8.950;2023-02-10T11:54:56;5.60;1.00
4727;DHT22;2377;51.734;8.950;2023-02-10T11:57:33;5.60;1.00
4727;DHT22;2377;51.734;8.950;2023-02-10T12:00:44;5.70;1.00
4727;DHT22;2377;51.734;8.950;2023-02-10T12:03:35;5.80;1.00
4727;DHT22;2377;51.734;8.950;2023-02-10T12:06:18;5.80;1.00
4727;DHT22;2377;51.734;8.950;2023-02-10T12:08:55;5.90;1.00
4727;DHT22;2377;51.734;8.950;2023-02-10T12:11:36;6.00;1.00
4727;DHT22;2377;51.734;8.950;2023-02-10T12:14:25;5.90;1.00
4727;DHT22;2377;51.734;8.950;2023-02-10T12:17:10;5.90;1.00
4727;DHT22;2377;51.734;8.950;2023-02-10T12:20:00;5.80;1.00
4727;DHT22;2377;51.734;8.950;2023-02-10T12:22:57;5.80;1.00
4727;DHT22;2377;51.734;8.950;2023-02-10T12:25:38;5.80;1.00
4727;DHT22;2377;51.734;8.950;2023-02-10T12:28:14;5.80;1.00
4727;DHT22;2377;51.734;8.950;2023-02-10T12:31:00;6.00;1.00
4727;DHT22;2377;51.734;8.950;2023-02-10T12:33:43;6.00;1.00
4727;DHT22;2377;51.734;8.950;2023-02-10T12:36:26;6.00;1.00
4727;DHT22;2377;51.734;8.950;2023-02-10T12:39:08;6.00;1.00
4727;DHT22;2377;51.734;8.950;2023-02-10T12:41:49;6.00;1.00
4727;DHT22;2377;51.734;8.950;2023-02-10T12:44:38;6.00;1.00
4727;DHT22;2377;51.734;8.950;2023-02-10T12:47:27;6.00;1.00
4727;DHT22;2377;51.734;8.950;2023-02-10T12:50:20;6.00;1.00
4727;DHT22;2377;51.734;8.950;2023-02-10T12:53:00;6.00;1.00
4727;DHT22;2377;51.734;8.950;2023-02-10T12:55:43;6.00;1.00
4727;DHT22;2377;51.734;8.950;2023-02-10T12:58:21;6.10;1.00
4727;DHT22;2377;51.734;8.950;2023-02-10T13:00:59;6.10;1.00
4727;DHT22;2377;51.734;8.950;2023-02-10T13:03:36;6.10;1.00
4727;DHT22;2377;51.734;8.950;2023-02-10T13:06:17;6.10;1.00
4727;DHT22;2377;51.734;8.950;2023-02-10T13:08:54;6.00;1.00
4727;DHT22;2377;51.734;8.950;2023-02-10T13:11:31;6.00;1.00
4727;DHT22;2377;51.734;8.950;2023-02-10T13:14:11;6.00;1.00
4727;DHT22;2377;51.734;8.950;2023-02-10T13:16:45;6.00;1.00
4727;DHT22;2377;51.734;8.950;2023-02-10T13:19:25;6.00;1.00
4727;DHT22;2377;51.734;8.950;2023-02-10T13:22:02;6.00;1.00
4727;DHT22;2377;51.734;8.950;2023-02-10T13:24:41;6.10;1.00
4727;DHT22;2377;51.734;8.950;2023-02-10T13:27:20;6.10;1.00
4727;DHT22;2377;51.734;8.950;2023-02-10T13:30:06;6.10;1.00
4727;DHT22;2377;51.734;8.950;2023-02-10T13:32:51;6.10;1.00
4727;DHT22;2377;51.734;8.950;2023-02-10T13:35:30;6.10;1.00
4727;DHT22;2377;51.734;8.950;2023-02-10T13:38:05;6.10;1.00
4727;DHT22;2377;51.734;8.950;2023-02-10T13:40:46;6.10;1.00
4727;DHT22;2377;51.734;8.950;2023-02-10T13:43:25;6.10;1.00
4727;DHT22;2377;51.734;8.950;2023-02-10T13:45:57;6.10;1.00
4727;DHT22;2377;51.734;8.950;2023-02-10T13:48:29;6.10;1.00
4727;DHT22;2377;51.734;8.950;2023-02-10T13:51:02;6.10;1.00
4727;DHT22;2377;51.734;8.950;2023-02-10T13:53:38;6.00;1.00
4727;DHT22;2377;51.734;8.950;2023-02-10T13:56:13;6.00;1.00
4727;DHT22;2377;51.734;8.950;2023-02-10T13:58:51;6.00;1.00
4727;DHT22;2377;51.734;8.950;2023-02-10T14:01:31;6.10;1.00
4727;DHT22;2377;51.734;8.950;2023-02-10T14:04:01;6.00;1.00
4727;DHT22;2377;51.734;8.950;2023-02-10T14:06:39;6.00;1.00
4727;DHT22;2377;51.734;8.950;2023-02-10T14:09:18;6.00;1.00
4727;DHT22;2377;51.734;8.950;2023-02-10T14:11:48;6.10;1.00
4727;DHT22;2377;51.734;8.950;2023-02-10T14:14:20;6.10;1.00
4727;DHT22;2377;51.734;8.950;2023-02-10T14:17:03;6.10;1.00
4727;DHT22;2377;51.734;8.950;2023-02-10T14:19:33;6.10;1.00
4727;DHT22;2377;51.734;8.950;2023-02-10T14:22:04;6.00;1.00
4727;DHT22;2377;51.734;8.950;2023-02-10T14:24:35;6.00;1.00
4727;DHT22;2377;51.734;8.950;2023-02-10T14:27:12;6.00;1.00
4727;DHT22;2377;51.734;8.950;2023-02-10T14:29:46;6.00;1.00
4727;DHT22;2377;51.734;8.950;2023-02-10T14:32:15;6.00;1.00
4727;DHT22;2377;51.734;8.950;2023-02-10T14:34:54;5.90;1.00
4727;DHT22;2377;51.734;8.950;2023-02-10T14:37:24;5.80;1.00
4727;DHT22;2377;51.734;8.950;2023-02-10T14:39:53;5.80;1.00
4727;DHT22;2377;51.734;8.950;2023-02-10T14:42:24;5.80;1.00
4727;DHT22;2377;51.734;8.950;2023-02-10T14:44:56;5.70;1.00
4727;DHT22;2377;51.734;8.950;2023-02-10T14:47:27;5.70;1.00
4727;DHT22;2377;51.734;8.950;2023-02-10T14:49:57;5.70;1.00
4727;DHT22;2377;51.734;8.950;2023-02-10T14:52:26;5.70;1.00
4727;DHT22;2377;51.734;8.950;2023-02-10T14:54:55;5.70;1.00
4727;DHT22;2377;51.734;8.950;2023-02-10T14:57:23;5.70;1.00
4727;DHT22;2377;51.734;8.950;2023-02-10T14:59:53;5.60;1.00
4727;DHT22;2377;51.734;8.950;2023-02-10T15:02:23;5.70;1.00
4727;DHT22;2377;51.734;8.950;2023-02-10T15:04:54;5.60;1.00
4727;DHT22;2377;51.734;8.950;2023-02-10T15:07:26;5.70;1.00
4727;DHT22;2377;51.734;8.950;2023-02-10T15:10:00;5.70;1.00
4727;DHT22;2377;51.734;8.950;2023-02-10T15:12:32;5.80;1.00
4727;DHT22;2377;51.734;8.950;2023-02-10T15:15:03;5.60;1.00
4727;DHT22;2377;51.734;8.950;2023-02-10T15:17:45;5.60;1.00
4727;DHT22;2377;51.734;8.950;2023-02-10T15:20:23;5.50;1.00
4727;DHT22;2377;51.734;8.950;2023-02-10T15:23:05;5.50;1.00
4727;DHT22;2377;51.734;8.950;2023-02-10T15:25:38;5.60;1.00
4727;DHT22;2377;51.734;8.950;2023-02-10T15:28:25;5.50;1.00
4727;DHT22;2377;51.734;8.950;2023-02-10T15:30:56;5.40;1.00
4727;DHT22;2377;51.734;8.950;2023-02-10T15:33:30;5.40;1.00
4727;DHT22;2377;51.734;8.950;2023-02-10T15:36:16;5.30;1.00
4727;DHT22;2377;51.734;8.950;2023-02-10T15:38:50;5.20;1.00
4727;DHT22;2377;51.734;8.950;2023-02-10T15:41:29;5.10;1.00
4727;DHT22;2377;51.734;8.950;2023-02-10T15:44:05;5.10;1.00
4727;DHT22;2377;51.734;8.950;2023-02-10T15:47:05;5.10;1.00
4727;DHT22;2377;51.734;8.950;2023-02-10T15:49:47;5.00;1.00
4727;DHT22;2377;51.734;8.950;2023-02-10T15:52:21;5.00;1.00
4727;DHT22;2377;51.734;8.950;2023-02-10T15:54:52;5.00;1.00
4727;DHT22;2377;51.734;8.950;2023-02-10T15:57:23;4.90;1.00
4727;DHT22;2377;51.734;8.950;2023-02-10T15:59:50;4.80;1.00
4727;DHT22;2377;51.734;8.950;2023-02-10T16:02:20;4.80;1.00
4727;DHT22;2377;51.734;8.950;2023-02-10T16:04:50;4.70;1.00
4727;DHT22;2377;51.734;8.950;2023-02-10T16:07:20;4.60;1.00
4727;DHT22;2377;51.734;8.950;2023-02-10T16:09:52;4.60;1.00
4727;DHT22;2377;51.734;8.950;2023-02-10T16:12:20;4.60;1.00
4727;DHT22;2377;51.734;8.950;2023-02-10T16:14:48;4.60;1.00
4727;DHT22;2377;51.734;8.950;2023-02-10T16:17:20;4.50;1.00
4727;DHT22;2377;51.734;8.950;2023-02-10T16:19:50;4.50;1.00
4727;DHT22;2377;51.734;8.950;2023-02-10T16:22:17;4.50;1.00
4727;DHT22;2377;51.734;8.950;2023-02-10T16:24:44;4.40;1.00
4727;DHT22;2377;51.734;8.950;2023-02-10T16:27:15;4.30;1.00
4727;DHT22;2377;51.734;8.950;2023-02-10T16:29:42;4.30;1.00
4727;DHT22;2377;51.734;8.950;2023-02-10T16:32:11;4.30;1.00
4727;DHT22;2377;51.734;8.950;2023-02-10T16:34:38;4.30;1.00
4727;DHT22;2377;51.734;8.950;2023-02-10T16:37:06;4.10;1.00
4727;DHT22;2377;51.734;8.950;2023-02-10T16:39:33;4.10;1.00
4727;DHT22;2377;51.734;8.950;2023-02-10T16:42:00;4.10;1.00
4727;DHT22;2377;51.734;8.950;2023-02-10T16:44:31;4.10;1.00
4727;DHT22;2377;51.734;8.950;2023-02-10T16:47:00;4.10;1.00
4727;DHT22;2377;51.734;8.950;2023-02-10T16:49:27;4.00;1.00
4727;DHT22;2377;51.734;8.950;2023-02-10T16:51:54;4.00;1.00
4727;DHT22;2377;51.734;8.950;2023-02-10T16:54:21;4.00;1.00
4727;DHT22;2377;51.734;8.950;2023-02-10T16:56:49;3.80;1.00
4727;DHT22;2377;51.734;8.950;2023-02-10T16:59:17;3.80;1.00
4727;DHT22;2377;51.734;8.950;2023-02-10T17:01:46;3.80;1.00
4727;DHT22;2377;51.734;8.950;2023-02-10T17:04:13;3.80;1.00